Time;durP1;ratioP1;P1;durP2;ratioP2;P2;SDS_P1;SDS_P2;PMS_P1;PMS_P2;Temp;Humidity;BMP_temperature;BMP_pressure;BME280_temperature;BME280_humidity;BME280_pressure;Samples;Min_cycle;Max_cycle;Signal;HPM_P1;HPM_P2
2022/01/15 00:00:20;;;;;;;11.93;4.83;;;9.40;81.00;;;12.68;58.98;103196.34;5073776;28;20747;-60
2022/01/15 00:02:47;;;;;;;15.43;5.50;;;9.50;81.20;;;12.72;58.99;103195.09;5086996;28;20704;-61
2022/01/15 00:05:14;;;;;;;11.77;5.73;;;9.50;81.30;;;12.74;58.94;103183.44;5073972;28;20551;-59
2022/01/15 00:07:47;;;;;;;14.73;6.37;;;9.50;81.30;;;12.79;58.93;103188.34;5060005;28;20554;-60
2022/01/15 00:10:26;;;;;;;13.20;6.50;;;9.50;81.20;;;12.80;58.68;103182.09;5069231;28;20192;-61
2022/01/15 00:12:54;;;;;;;11.93;5.40;;;9.60;81.20;;;12.81;59.09;103181.16;5052211;28;20227;-61
2022/01/15 00:15:30;;;;;;;16.07;6.50;;;9.60;81.20;;;12.84;58.89;103173.78;5060332;28;20193;-61
2022/01/15 00:18:01;;;;;;;16.40;7.33;;;9.60;81.00;;;12.84;58.96;103173.78;5070078;28;20198;-60
2022/01/15 00:20:29;;;;;;;15.87;6.37;;;9.60;80.40;;;12.84;58.75;103176.44;5053882;28;20274;-61
2022/01/15 00:22:59;;;;;;;14.57;5.80;;;9.60;80.40;;;12.81;58.63;103181.16;5056517;28;20300;-60
2022/01/15 00:25:31;;;;;;;14.23;5.53;;;9.60;80.60;;;12.78;58.77;103176.13;5073378;28;20185;-61
2022/01/15 00:28:00;;;;;;;13.70;6.20;;;9.60;80.30;;;12.74;58.92;103172.88;5068721;28;20279;-62
2022/01/15 00:30:28;;;;;;;10.67;5.73;;;9.70;80.30;;;12.72;59.03;103176.59;5071701;28;20189;-61
2022/01/15 00:32:56;;;;;;;14.80;6.40;;;9.60;80.30;;;12.69;58.88;103167.13;5072813;28;20193;-59
2022/01/15 00:35:25;;;;;;;14.73;7.67;;;9.70;80.40;;;12.66;58.94;103167.41;5063812;28;20190;-62
2022/01/15 00:37:54;;;;;;;15.20;6.77;;;9.60;80.10;;;12.64;59.05;103157.94;5053466;28;20199;-60
2022/01/15 00:40:21;;;;;;;21.83;6.83;;;9.60;79.70;;;12.60;58.79;103161.81;5069341;28;20577;-60
2022/01/15 00:42:50;;;;;;;14.27;6.60;;;9.50;79.10;;;12.52;58.80;103170.38;5053349;28;20209;-58
2022/01/15 00:45:21;;;;;;;12.80;5.80;;;9.50;79.50;;;12.46;58.71;103165.56;5058856;28;20268;-61
2022/01/15 00:47:49;;;;;;;11.63;6.17;;;9.40;79.70;;;12.39;59.04;103159.13;5070744;28;20246;-61
2022/01/15 00:50:18;;;;;;;16.43;5.83;;;9.40;79.80;;;12.35;59.04;103156.88;5073560;28;20548;-61
2022/01/15 00:52:46;;;;;;;15.73;6.93;;;9.40;79.70;;;12.29;58.86;103152.09;5069087;28;20654;-62
2022/01/15 00:55:15;;;;;;;16.80;6.97;;;9.30;79.30;;;12.26;59.29;103163.75;5052705;28;20750;-57
2022/01/15 00:57:42;;;;;;;12.17;6.13;;;9.30;80.20;;;12.26;59.28;103157.63;5051930;28;20639;-58
2022/01/15 01:00:18;;;;;;;10.77;5.57;;;9.20;80.30;;;12.23;59.15;103149.00;5057395;28;20560;-57
2022/01/15 01:02:46;;;;;;;14.03;6.17;;;9.30;80.10;;;12.21;59.15;103145.66;5053853;28;20642;-61
2022/01/15 01:05:14;;;;;;;12.13;6.17;;;9.20;79.70;;;12.19;59.01;103152.00;5060108;28;20215;-61
2022/01/15 01:07:41;;;;;;;12.93;6.67;;;9.20;79.70;;;12.18;58.84;103145.88;5073402;28;20185;-61
2022/01/15 01:20:04;;;;;;;22.20;7.20;;;9.10;80.10;;;12.20;58.69;103143.94;5073178;28;20199;-61
2022/01/15 01:24:16;;;;;;;18.73;7.17;;;9.00;80.00;;;12.19;58.91;103144.09;5072458;28;20255;-61
2022/01/15 01:26:49;;;;;;;17.13;8.23;;;9.00;80.20;;;12.20;58.54;103137.84;5072798;28;20189;-61
2022/01/15 01:32:01;;;;;;;17.73;8.67;;;9.00;80.30;;;12.21;58.63;103135.09;5105749;28;20251;-62
2022/01/15 01:34:32;;;;;;;25.37;11.43;;;9.00;80.20;;;12.21;58.60;103144.81;5072896;28;20209;-61
2022/01/15 01:39:42;;;;;;;22.23;10.20;;;9.00;80.50;;;12.20;58.79;103133.41;5074877;28;20200;-62
2022/01/15 01:45:04;;;;;;;19.80;9.37;;;9.00;80.20;;;12.14;58.89;103149.75;5076565;28;20291;-61
2022/01/15 01:47:40;;;;;;;22.63;11.13;;;8.90;80.40;;;12.17;58.95;103138.91;5076580;28;20200;-62
2022/01/15 01:50:12;;;;;;;19.70;10.13;;;8.90;80.00;;;12.15;58.74;103127.66;5076640;28;20553;-61
2022/01/15 01:52:41;;;;;;;17.23;8.87;;;8.90;80.00;;;12.16;58.63;103120.56;5075990;28;20189;-62
2022/01/15 01:55:10;;;;;;;18.93;9.33;;;8.90;79.90;;;12.14;58.56;103123.34;5076396;28;20634;-60
2022/01/15 01:57:38;;;;;;;22.70;10.53;;;8.90;80.00;;;12.11;58.33;103118.31;5076312;28;20268;-61
2022/01/15 02:00:10;;;;;;;23.70;10.60;;;8.90;79.80;;;12.10;58.59;103116.63;5075252;28;20255;-62
2022/01/15 02:02:38;;;;;;;24.70;10.63;;;8.90;80.20;;;12.10;58.54;103116.63;5075952;28;20711;-60
2022/01/15 02:05:09;;;;;;;18.30;9.03;;;8.90;80.30;;;12.09;58.22;103109.69;5076333;28;20201;-62
2022/01/15 02:07:36;;;;;;;20.03;8.30;;;8.80;80.20;;;12.03;58.75;103104.91;5076453;28;20272;-62
2022/01/15 02:10:08;;;;;;;18.87;8.97;;;8.80;80.10;;;12.01;59.08;103105.97;5075865;28;20604;-61
2022/01/15 02:12:36;;;;;;;20.20;9.10;;;8.80;80.50;;;12.05;59.16;103110.06;5075992;28;20557;-61
2022/01/15 02:15:09;;;;;;;17.97;9.07;;;8.90;80.60;;;12.03;58.86;103106.69;5076140;28;20272;-61
2022/01/15 02:17:39;;;;;;;27.70;10.47;;;8.90;80.20;;;12.05;58.88;103100.31;5076171;28;20189;-61
2022/01/15 02:20:24;;;;;;;21.77;11.10;;;8.90;80.00;;;12.04;58.57;103095.19;5076868;28;20306;-61
2022/01/15 02:25:44;;;;;;;28.87;11.80;;;8.80;80.50;;;12.03;58.86;103091.69;5076168;28;20193;-58
2022/01/15 02:28:12;;;;;;;24.07;11.57;;;8.90;80.50;;;12.03;58.73;103094.34;5075785;28;20554;-61
2022/01/15 02:30:40;;;;;;;21.57;11.10;;;8.90;80.30;;;12.03;59.03;103085.56;5076194;28;20606;-62
2022/01/15 02:33:08;;;;;;;24.97;11.37;;;8.90;79.70;;;12.02;58.99;103086.56;5075564;28;20277;-60
2022/01/15 02:35:37;;;;;;;24.77;11.47;;;8.90;80.00;;;12.03;58.72;103070.59;5076046;28;20189;-59
2022/01/15 02:38:08;;;;;;;24.93;12.97;;;8.90;80.00;;;12.04;58.65;103060.88;5075808;28;20189;-60
2022/01/15 02:40:36;;;;;;;29.07;13.10;;;8.90;80.10;;;12.02;58.54;103071.56;5075827;28;20280;-59
2022/01/15 02:43:04;;;;;;;28.37;12.80;;;8.90;80.00;;;12.03;58.58;103067.94;5075020;28;20220;-60
2022/01/15 02:45:34;;;;;;;23.57;11.03;;;8.90;79.90;;;12.04;58.88;103045.88;5075597;28;20197;-60
2022/01/15 02:48:02;;;;;;;26.83;13.70;;;8.90;80.00;;;12.05;58.75;103050.16;5075693;28;20269;-60
2022/01/15 02:50:30;;;;;;;21.20;12.43;;;8.90;80.00;;;12.06;58.76;103045.75;5075241;28;20199;-56
2022/01/15 02:53:03;;;;;;;29.60;14.20;;;8.90;80.00;;;12.02;58.75;103044.31;5074874;28;20260;-60
2022/01/15 02:55:31;;;;;;;23.17;12.57;;;8.90;79.70;;;11.97;58.44;103041.22;5091316;28;20197;-59
2022/01/15 02:57:59;;;;;;;24.33;12.73;;;8.90;79.40;;;11.92;58.44;103044.25;5075340;28;20193;-62
2022/01/15 03:00:28;;;;;;;21.73;11.33;;;8.90;79.40;;;11.90;58.60;103042.69;5074837;28;20199;-59
2022/01/15 03:02:55;;;;;;;21.67;12.20;;;8.80;79.40;;;11.84;58.45;103035.31;5075096;28;20268;-62
2022/01/15 03:05:22;;;;;;;27.43;13.47;;;8.80;79.30;;;11.78;58.68;103041.06;5075135;28;20620;-59
2022/01/15 03:07:50;;;;;;;22.90;13.47;;;8.80;79.30;;;11.76;58.61;103037.72;5075109;28;20193;-59
2022/01/15 03:10:18;;;;;;;31.23;12.77;;;8.80;79.50;;;11.76;59.23;103033.28;5075427;28;20186;-61
2022/01/15 03:12:46;;;;;;;27.07;12.37;;;8.80;79.60;;;11.79;59.32;103027.72;5074793;28;20193;-61
2022/01/15 03:15:19;;;;;;;31.50;14.83;;;8.70;79.80;;;11.81;59.14;103025.84;5074858;28;20193;-60
2022/01/15 03:17:47;;;;;;;32.60;14.80;;;8.70;80.00;;;11.79;58.96;103033.00;5074649;28;20574;-60
2022/01/15 03:20:18;;;;;;;29.67;15.07;;;8.80;79.80;;;11.73;59.04;103028.25;5075683;28;20189;-60
2022/01/15 03:22:46;;;;;;;22.57;11.83;;;8.80;79.60;;;11.67;59.48;103026.06;5074608;28;20680;-60
2022/01/15 03:25:14;;;;;;;30.17;16.83;;;8.70;79.50;;;11.65;59.54;103025.34;5074567;28;20217;-61
2022/01/15 03:27:43;;;;;;;26.03;13.67;;;8.70;79.50;;;11.66;59.05;103013.84;5074627;28;20272;-62
2022/01/15 03:30:12;;;;;;;27.83;13.20;;;8.70;79.80;;;11.69;59.67;103021.56;5074609;28;20196;-61
2022/01/15 03:32:44;;;;;;;24.90;13.00;;;8.70;80.50;;;11.75;59.72;103028.94;5073769;28;20680;-59
2022/01/15 03:35:15;;;;;;;22.83;12.90;;;8.70;80.50;;;11.80;59.10;103023.28;5074960;28;20565;-60
2022/01/15 03:37:43;;;;;;;24.93;13.43;;;8.70;80.20;;;11.81;59.02;103028.47;5075135;28;20216;-59
2022/01/15 03:40:18;;;;;;;21.60;13.17;;;8.70;80.10;;;11.80;59.11;103034.69;5073472;28;20200;-61
2022/01/15 03:42:47;;;;;;;28.87;14.37;;;8.70;80.00;;;11.81;59.01;103031.09;5074699;28;20189;-61
2022/01/15 03:45:16;;;;;;;33.33;13.93;;;8.70;79.90;;;11.82;58.56;103032.75;5074647;28;20217;-61
2022/01/15 03:47:45;;;;;;;25.30;12.33;;;8.60;79.80;;;11.82;58.87;103040.69;5074725;28;20238;-59
2022/01/15 03:50:15;;;;;;;23.47;10.43;;;8.60;79.90;;;11.78;58.48;103036.63;5074070;28;20713;-62
2022/01/15 03:52:43;;;;;;;23.30;10.13;;;8.60;79.70;;;11.73;58.63;103038.81;5073920;28;20677;-56
2022/01/15 03:55:13;;;;;;;17.37;8.70;;;8.50;79.50;;;11.68;58.47;103035.69;5074115;28;20189;-59
2022/01/15 03:57:42;;;;;;;24.60;10.67;;;8.50;79.50;;;11.66;58.97;103027.03;5074271;28;20189;-61
2022/01/15 04:00:15;;;;;;;20.57;9.77;;;8.50;79.80;;;11.64;58.55;103025.50;5074250;28;20193;-60
2022/01/15 04:02:42;;;;;;;24.93;10.77;;;8.40;79.80;;;11.64;58.56;103036.88;5072906;28;20196;-59
2022/01/15 04:05:11;;;;;;;21.97;11.43;;;8.40;80.20;;;11.65;58.80;103030.63;5073350;28;20212;-60
2022/01/15 04:07:38;;;;;;;21.27;10.90;;;8.40;80.20;;;11.64;58.77;103028.97;5073876;28;20189;-61
2022/01/15 04:10:09;;;;;;;19.87;9.77;;;8.40;80.60;;;11.67;58.87;103026.06;5073665;28;20193;-59
2022/01/15 04:12:36;;;;;;;19.60;8.63;;;8.40;80.70;;;11.66;59.04;103021.75;5073576;28;20224;-61
2022/01/15 04:15:06;;;;;;;19.33;8.60;;;8.40;80.40;;;11.66;59.16;103013.00;5073578;28;20208;-61
2022/01/15 04:17:35;;;;;;;16.37;9.13;;;8.40;80.60;;;11.66;59.28;103013.84;5073833;28;20195;-62
2022/01/15 04:20:04;;;;;;;12.13;7.03;;;8.40;80.50;;;11.64;58.72;103007.88;5074212;28;20650;-61
2022/01/15 04:22:32;;;;;;;14.97;7.50;;;8.50;80.30;;;11.64;58.85;103013.16;5073254;28;20193;-62
2022/01/15 04:24:59;;;;;;;15.97;8.90;;;8.50;80.30;;;11.67;59.11;103012.88;5073674;28;20695;-62
2022/01/15 04:27:26;;;;;;;11.83;6.50;;;8.50;81.00;;;11.73;59.49;103016.84;5073524;28;20191;-61
2022/01/15 04:29:56;;;;;;;13.50;7.43;;;8.50;80.50;;;11.73;59.25;103007.16;5073743;28;20565;-61
2022/01/15 04:32:23;;;;;;;8.17;6.07;;;8.50;80.00;;;11.74;58.92;103008.84;5073222;28;20195;-56
2022/01/15 04:34:52;;;;;;;10.07;6.60;;;8.50;80.10;;;11.71;58.38;103001.16;5072318;28;20308;-60
2022/01/15 04:37:22;;;;;;;9.93;5.97;;;8.50;79.80;;;11.68;58.68;103009.31;5073631;28;20189;-58
2022/01/15 04:39:50;;;;;;;9.10;5.83;;;8.60;79.70;;;11.66;59.00;103010.38;5073805;28;20193;-58
2022/01/15 04:42:21;;;;;;;12.10;6.23;;;8.60;80.50;;;11.67;58.62;103012.88;5074263;28;20217;-58
2022/01/15 04:44:50;;;;;;;13.83;6.90;;;8.60;79.90;;;11.72;58.78;103010.72;5074428;28;20227;-62
2022/01/15 04:47:17;;;;;;;11.60;7.37;;;8.50;80.20;;;11.76;58.79;102998.97;5073254;28;20309;-61
2022/01/15 04:49:45;;;;;;;11.70;7.37;;;8.60;80.20;;;11.74;58.53;103019.38;5073434;28;20193;-62
2022/01/15 04:52:13;;;;;;;12.90;7.63;;;8.60;79.90;;;11.68;58.90;103011.94;5073695;28;20197;-61
2022/01/15 04:54:41;;;;;;;9.83;5.30;;;8.60;79.70;;;11.68;59.00;103013.75;5072820;28;20283;-62
2022/01/15 04:57:08;;;;;;;10.27;6.40;;;8.60;79.80;;;11.68;58.76;103008.47;5073374;28;20189;-61
2022/01/15 04:59:36;;;;;;;10.37;6.80;;;8.60;79.90;;;11.72;59.22;103005.44;5073225;28;20277;-61
2022/01/15 05:02:03;;;;;;;10.03;6.20;;;8.60;80.10;;;11.75;58.66;102999.94;5073415;28;20201;-62
2022/01/15 05:04:31;;;;;;;9.67;6.47;;;8.60;80.10;;;11.80;58.62;103018.88;5072762;28;20282;-62
2022/01/15 05:06:58;;;;;;;10.93;7.53;;;8.60;80.30;;;11.84;58.72;103012.38;5073168;28;20235;-59
2022/01/15 05:09:27;;;;;;;10.30;7.30;;;8.60;80.40;;;11.84;58.58;103014.19;5073894;28;20185;-62
2022/01/15 05:12:02;;;;;;;10.57;7.27;;;8.60;80.20;;;11.86;59.02;103002.50;5072660;28;20199;-60
2022/01/15 05:14:30;;;;;;;10.17;6.93;;;8.70;80.20;;;11.88;58.81;102999.78;5075356;28;20230;-60
2022/01/15 05:16:57;;;;;;;9.90;7.27;;;8.70;79.90;;;11.90;58.82;102996.03;5077196;28;20185;-61
2022/01/15 05:19:25;;;;;;;11.57;6.27;;;8.70;79.90;;;11.93;58.43;102998.41;5077183;28;20200;-56
2022/01/15 05:21:55;;;;;;;14.20;7.17;;;8.70;80.00;;;11.97;58.61;103007.75;5077167;28;20192;-62
2022/01/15 05:24:26;;;;;;;10.13;6.60;;;8.70;80.50;;;12.01;58.94;103005.69;5076483;28;20280;-62
2022/01/15 05:26:55;;;;;;;8.83;5.73;;;8.80;80.40;;;12.07;58.59;103002.56;5076686;28;20189;-60
2022/01/15 05:29:22;;;;;;;9.67;6.23;;;8.80;80.30;;;12.08;58.46;102997.13;5077345;28;20291;-60
2022/01/15 05:31:49;;;;;;;8.47;5.73;;;8.90;80.10;;;12.07;58.25;102995.47;5076657;28;20181;-60
2022/01/15 05:34:17;;;;;;;10.30;6.87;;;8.90;79.70;;;12.04;58.00;102994.88;5076310;28;20236;-62
2022/01/15 05:36:45;;;;;;;9.43;5.97;;;8.90;79.10;;;11.96;58.06;102999.94;5077044;28;20565;-61
2022/01/15 05:39:13;;;;;;;11.50;7.70;;;8.90;78.80;;;11.91;58.23;102999.53;5076804;28;20194;-62
2022/01/15 05:41:42;;;;;;;9.37;7.13;;;8.90;78.90;;;11.89;58.67;103006.69;5076896;28;20192;-61
2022/01/15 05:44:10;;;;;;;8.07;5.70;;;8.90;78.90;;;11.88;58.33;102997.97;5075935;28;20292;-61
2022/01/15 05:46:38;;;;;;;12.10;6.70;;;8.90;79.00;;;11.88;58.38;102995.34;5076676;28;20188;-62
2022/01/15 05:49:05;;;;;;;8.63;6.80;;;8.80;79.00;;;11.88;58.82;102990.06;5075653;28;20284;-60
2022/01/15 05:51:33;;;;;;;11.83;6.63;;;8.80;79.40;;;11.90;58.60;102990.75;5075244;28;20671;-62
2022/01/15 05:54:10;;;;;;;10.13;6.47;;;8.80;79.60;;;11.94;58.59;102989.53;5076206;28;20212;-59
2022/01/15 05:56:39;;;;;;;10.33;7.17;;;8.90;79.70;;;11.97;58.58;102991.09;5076499;28;20203;-61
2022/01/15 05:59:07;;;;;;;11.40;8.17;;;8.90;79.70;;;12.00;58.58;102989.03;5076119;28;20199;-62
2022/01/15 06:01:37;;;;;;;10.60;7.13;;;8.90;79.90;;;12.05;58.84;102993.94;5076398;28;20284;-59
2022/01/15 06:04:05;;;;;;;9.53;7.17;;;8.90;79.80;;;12.09;58.67;102998.81;5076062;28;20219;-61
2022/01/15 06:06:33;;;;;;;14.07;9.03;;;9.00;79.90;;;12.13;58.46;102994.94;5076404;28;20193;-62
2022/01/15 06:09:03;;;;;;;9.77;6.90;;;9.00;80.30;;;12.14;58.21;102991.34;5076525;28;20307;-62
2022/01/15 06:11:30;;;;;;;9.37;6.70;;;9.10;79.40;;;12.18;58.41;102987.47;5076364;28;20195;-58
2022/01/15 06:13:58;;;;;;;11.33;7.50;;;9.00;79.30;;;12.21;58.17;102981.94;5075732;28;20221;-62
2022/01/15 06:16:25;;;;;;;8.73;7.40;;;9.00;79.10;;;12.22;58.00;102978.31;5075135;28;20221;-60
2022/01/15 06:18:54;;;;;;;13.00;7.60;;;9.00;79.20;;;12.24;57.85;102981.66;5076005;28;20228;-63
2022/01/15 06:21:21;;;;;;;13.07;8.80;;;9.10;79.30;;;12.23;58.10;102977.38;5075909;28;20197;-59
2022/01/15 06:23:49;;;;;;;12.13;8.77;;;9.10;79.00;;;12.20;57.92;102969.69;5075611;28;20209;-62
2022/01/15 06:26:16;;;;;;;11.87;7.13;;;9.10;78.80;;;12.14;57.94;102969.41;5075399;28;20198;-61
2022/01/15 06:28:43;;;;;;;11.53;7.17;;;9.10;78.80;;;12.12;58.32;102966.88;5076071;28;20564;-62
2022/01/15 06:31:10;;;;;;;14.50;7.50;;;9.00;78.70;;;12.13;58.23;102968.56;5076035;28;20268;-62
2022/01/15 06:33:38;;;;;;;8.67;6.57;;;9.00;79.20;;;12.17;58.31;102975.22;5074929;28;20287;-60
2022/01/15 06:36:07;;;;;;;10.30;6.97;;;9.00;79.40;;;12.20;58.44;102974.97;5075696;28;20200;-63
2022/01/15 06:38:34;;;;;;;18.37;8.83;;;9.00;79.50;;;12.20;58.33;102979.41;5091231;28;20621;-61
2022/01/15 06:41:01;;;;;;;13.00;8.10;;;9.10;79.20;;;12.16;58.21;102973.56;5075629;28;20193;-62
2022/01/15 06:43:29;;;;;;;12.97;8.10;;;9.00;78.90;;;12.09;58.20;102971.59;5075636;28;20233;-62
2022/01/15 06:45:56;;;;;;;11.57;9.13;;;9.00;78.90;;;12.06;58.29;102977.94;5075414;28;20209;-61
2022/01/15 06:48:24;;;;;;;17.87;10.13;;;9.00;79.00;;;12.03;58.80;102986.13;5075160;28;20272;-63
2022/01/15 06:50:52;;;;;;;16.83;8.60;;;9.00;78.90;;;12.01;58.73;102980.13;5072952;28;20540;-62
2022/01/15 06:53:20;;;;;;;14.37;9.93;;;9.00;78.90;;;11.99;58.57;102975.94;5074669;28;20215;-62
2022/01/15 06:55:51;;;;;;;13.10;9.47;;;9.00;79.00;;;11.96;58.56;102974.41;5075482;28;20192;-62
2022/01/15 06:58:24;;;;;;;12.47;8.77;;;8.90;79.10;;;11.96;58.93;102979.69;5075340;28;20196;-60
2022/01/15 07:00:52;;;;;;;16.40;10.00;;;8.90;79.30;;;11.97;59.22;102973.44;5075232;28;20292;-59
2022/01/15 07:03:19;;;;;;;11.27;7.97;;;8.90;79.60;;;12.01;58.84;102974.84;5074921;28;20245;-59
2022/01/15 07:05:47;;;;;;;14.07;8.23;;;8.90;79.70;;;12.08;58.85;102976.00;5074899;28;20220;-60
2022/01/15 07:08:14;;;;;;;12.47;9.00;;;8.90;79.80;;;12.13;58.94;102972.97;5075592;28;20692;-60
2022/01/15 07:10:43;;;;;;;14.83;9.93;;;9.00;79.90;;;12.17;58.62;102974.44;5073862;28;20582;-60
2022/01/15 07:13:11;;;;;;;16.43;9.60;;;9.00;79.90;;;12.22;58.86;102972.19;5073319;28;20216;-61
2022/01/15 07:15:38;;;;;;;13.93;8.30;;;9.00;79.70;;;12.24;58.48;102971.09;5074730;28;20241;-59
2022/01/15 07:18:06;;;;;;;13.20;8.00;;;9.10;79.60;;;12.28;58.27;102965.56;5074894;28;20193;-62
2022/01/15 07:20:33;;;;;;;17.90;10.13;;;9.10;79.60;;;12.31;58.24;102970.59;5075374;28;20185;-61
2022/01/15 07:23:01;;;;;;;15.67;9.17;;;9.10;79.50;;;12.31;58.24;102965.31;5074031;28;20248;-59
2022/01/15 07:25:28;;;;;;;16.33;9.57;;;9.10;79.50;;;12.32;58.28;102966.97;5074615;28;20284;-61
2022/01/15 07:27:57;;;;;;;15.70;8.70;;;9.10;79.40;;;12.30;58.27;102963.63;5090079;28;20181;-61
2022/01/15 07:30:25;;;;;;;17.30;10.80;;;9.10;79.30;;;12.30;58.14;102958.34;5074514;28;20741;-62
2022/01/15 07:32:52;;;;;;;18.37;9.30;;;9.10;79.30;;;12.31;57.91;102954.75;5073933;28;20194;-62
2022/01/15 07:35:19;;;;;;;18.07;9.40;;;9.10;79.20;;;12.31;58.25;102960.03;5074548;28;20177;-62
2022/01/15 07:37:47;;;;;;;15.70;10.80;;;9.10;79.20;;;12.27;58.06;102959.44;5073466;28;20272;-61
2022/01/15 07:40:14;;;;;;;17.63;11.10;;;9.10;78.70;;;12.24;58.05;102955.25;5074176;28;20713;-61
2022/01/15 07:42:42;;;;;;;17.50;10.13;;;9.10;78.70;;;12.21;57.87;102954.72;5073899;28;20212;-62
2022/01/15 07:45:14;;;;;;;19.60;10.27;;;9.10;78.70;;;12.17;58.16;102950.66;5074037;28;20205;-62
2022/01/15 07:47:43;;;;;;;14.03;10.33;;;9.10;78.70;;;12.10;58.14;102950.31;5074373;28;20193;-61
2022/01/15 07:50:14;;;;;;;14.53;9.57;;;9.10;78.60;;;12.01;57.80;102951.09;5073945;28;20524;-62
2022/01/15 07:52:41;;;;;;;12.67;9.33;;;9.00;78.20;;;11.91;57.97;102952.03;5072039;28;20244;-61
2022/01/15 07:55:09;;;;;;;11.93;9.13;;;9.00;78.20;;;11.84;58.58;102946.41;5073806;28;20189;-61
2022/01/15 07:57:57;;;;;;;11.20;8.60;;;8.90;78.10;;;11.78;58.51;102948.72;5074044;28;20193;-61
2022/01/15 08:00:26;;;;;;;10.40;7.93;;;8.90;78.40;;;11.75;58.34;102947.16;5073769;28;20666;-61
2022/01/15 08:02:54;;;;;;;10.87;8.93;;;8.80;78.40;;;11.73;58.65;102948.25;5073454;28;20204;-60
2022/01/15 08:05:22;;;;;;;10.40;8.53;;;8.80;78.60;;;11.68;58.84;102946.00;5073649;28;20209;-60
2022/01/15 08:07:49;;;;;;;11.50;8.77;;;8.80;78.60;;;11.63;58.49;102948.16;5073626;28;20615;-62
2022/01/15 08:10:16;;;;;;;10.27;8.30;;;8.70;78.40;;;11.60;59.11;102945.75;5089762;28;20193;-60
2022/01/15 08:12:45;;;;;;;15.13;10.87;;;8.70;78.50;;;11.64;58.86;102954.28;5072937;28;20189;-58
2022/01/15 08:15:14;;;;;;;12.83;9.77;;;8.70;79.10;;;11.70;59.29;102957.25;5073469;28;20182;-60
2022/01/15 08:17:42;;;;;;;16.23;11.30;;;8.70;79.10;;;11.76;58.83;102962.06;5073518;28;20221;-59
2022/01/15 08:20:12;;;;;;;14.60;10.27;;;8.80;79.10;;;11.78;58.97;102960.13;5073521;28;20264;-58
2022/01/15 08:22:40;;;;;;;13.77;10.13;;;8.80;79.10;;;11.81;58.70;102959.88;5073158;28;20537;-57
2022/01/15 08:25:10;;;;;;;11.10;9.10;;;8.80;79.10;;;11.84;58.75;102956.94;5073222;28;20717;-61
2022/01/15 08:27:37;;;;;;;13.80;9.90;;;8.80;79.20;;;11.89;58.55;102965.31;5073554;28;20197;-60
2022/01/15 08:30:07;;;;;;;13.07;9.77;;;8.80;78.90;;;11.92;58.35;102964.22;5073431;28;20917;-58
2022/01/15 08:32:35;;;;;;;11.57;9.07;;;8.80;78.90;;;11.94;58.56;102967.56;5072889;28;20199;-59
2022/01/15 08:35:06;;;;;;;14.27;10.33;;;8.90;79.10;;;11.98;58.08;102964.56;5073428;28;20622;-61
2022/01/15 08:37:35;;;;;;;16.53;11.63;;;8.90;79.00;;;11.98;58.39;102961.91;5071655;28;20284;-60
2022/01/15 08:40:03;;;;;;;13.87;9.90;;;8.90;78.80;;;11.97;58.29;102962.91;5073160;28;20584;-61
2022/01/15 08:42:30;;;;;;;9.73;7.93;;;9.00;78.90;;;11.98;58.24;102969.03;5072485;28;20226;-61
2022/01/15 08:44:58;;;;;;;12.60;9.50;;;8.90;79.60;;;12.03;58.15;102962.38;5086731;28;20218;-61
2022/01/15 08:47:25;;;;;;;15.70;9.10;;;8.90;78.90;;;12.11;58.13;102964.38;5071458;28;20197;-61
2022/01/15 08:49:53;;;;;;;13.60;9.77;;;9.00;79.20;;;12.17;58.02;102959.41;5072989;28;20567;-57
2022/01/15 08:52:23;;;;;;;12.87;9.83;;;9.00;79.20;;;12.24;57.85;102960.53;5072948;28;20237;-63
2022/01/15 08:54:51;;;;;;;12.87;9.60;;;9.00;79.10;;;12.29;58.11;102968.06;5072665;28;20288;-61
2022/01/15 08:57:18;;;;;;;12.43;9.13;;;9.10;79.10;;;12.34;58.25;102971.16;5067525;28;20276;-61
2022/01/15 08:59:46;;;;;;;13.60;9.70;;;9.10;79.00;;;12.35;57.52;102969.38;5058554;28;20234;-60
2022/01/15 09:02:13;;;;;;;12.10;9.97;;;9.20;78.70;;;12.37;57.51;102967.44;5057784;28;20198;-58
2022/01/15 09:04:40;;;;;;;11.33;9.00;;;9.20;78.50;;;12.37;57.64;102964.78;5054042;28;20243;-54
2022/01/15 09:07:10;;;;;;;10.83;8.80;;;9.20;78.40;;;12.39;57.84;102963.69;5053634;28;20192;-53
2022/01/15 09:09:39;;;;;;;14.07;9.53;;;9.30;78.50;;;12.42;57.62;102965.22;5057574;28;20280;-57
2022/01/15 09:12:07;;;;;;;14.97;10.33;;;9.30;78.30;;;12.40;57.16;102969.81;5068767;28;20205;-55
2022/01/15 09:14:35;;;;;;;11.50;9.13;;;9.30;77.80;;;12.37;57.24;102965.63;5052383;28;20569;-56
2022/01/15 09:17:03;;;;;;;14.27;9.80;;;9.30;77.70;;;12.38;57.46;102962.03;5061692;28;20186;-55
2022/01/15 09:19:31;;;;;;;12.93;9.73;;;9.30;77.60;;;12.43;57.43;102964.28;5060819;28;20190;-57
2022/01/15 09:21:59;;;;;;;14.10;10.07;;;9.40;77.90;;;12.47;57.23;102960.41;5056245;28;20268;-54
2022/01/15 09:24:26;;;;;;;11.97;8.77;;;9.40;77.80;;;12.47;57.18;102960.41;5062980;28;20209;-54
2022/01/15 09:32:09;;;;;;;11.73;8.60;;;9.40;77.50;;;12.51;57.28;102951.22;5063728;28;20195;-53
2022/01/15 09:34:37;;;;;;;12.13;9.80;;;9.40;77.50;;;12.56;57.25;102959.59;5071636;28;20342;-55
2022/01/15 09:37:07;;;;;;;13.57;9.27;;;9.50;77.70;;;12.64;57.50;102951.84;5071702;28;20189;-53
2022/01/15 09:39:34;;;;;;;11.37;9.50;;;9.50;78.00;;;12.74;56.71;102958.03;5060699;28;20276;-55
2022/01/15 09:42:04;;;;;;;12.40;9.00;;;9.60;77.40;;;12.74;56.56;102948.25;5072514;28;20216;-55
2022/01/15 09:44:34;;;;;;;12.83;9.13;;;9.60;76.80;;;12.79;56.88;102934.63;5051716;28;20260;-55
2022/01/15 09:47:03;;;;;;;11.37;8.60;;;9.70;77.00;;;12.86;56.75;102931.31;5067589;28;20206;-51
2022/01/15 09:49:32;;;;;;;13.13;9.40;;;9.70;77.20;;;12.93;56.11;102934.28;5064386;28;20193;-52
2022/01/15 09:52:03;;;;;;;12.73;7.87;;;9.70;76.60;;;12.97;56.14;102937.47;5071774;28;20200;-56
2022/01/15 09:54:30;;;;;;;21.67;15.80;;;9.80;76.80;;;13.06;56.37;102934.88;5070212;28;20292;-55
2022/01/15 09:56:58;;;;;;;13.13;11.30;;;9.80;77.10;;;13.20;56.08;102921.28;5055395;28;20273;-53
2022/01/15 09:59:26;;;;;;;14.43;9.27;;;9.90;77.10;;;13.32;55.77;102914.88;5052948;28;20208;-57
2022/01/15 10:01:54;;;;;;;16.43;9.57;;;10.00;75.60;;;13.47;55.52;102916.16;5070822;28;20205;-56
2022/01/15 10:04:21;;;;;;;13.03;9.63;;;10.10;75.50;;;13.63;54.87;102914.72;5073733;28;20221;-56
2022/01/15 10:07:11;;;;;;;11.20;8.27;;;10.30;75.00;;;13.71;53.99;102917.50;5069034;28;20225;-54
2022/01/15 10:09:41;;;;;;;10.33;7.67;;;10.40;74.10;;;13.78;54.65;102915.97;5055870;28;20194;-53
2022/01/15 10:12:11;;;;;;;12.23;8.70;;;10.50;74.20;;;13.88;54.19;102904.38;5055632;28;20201;-56
2022/01/15 10:14:42;;;;;;;9.30;8.40;;;10.60;73.70;;;13.97;54.37;102902.69;5069771;28;20231;-59
2022/01/15 10:17:22;;;;;;;11.17;8.77;;;10.60;73.80;;;13.98;54.09;102893.75;5058127;28;20701;-61
2022/01/15 10:19:51;;;;;;;11.93;7.97;;;10.70;73.20;;;14.02;54.42;102897.81;5055707;28;20754;-63
2022/01/15 10:22:22;;;;;;;9.83;7.13;;;10.80;73.20;;;14.06;54.40;102897.38;5075187;28;20564;-61
2022/01/15 10:24:56;;;;;;;11.27;7.97;;;10.90;73.00;;;14.33;54.10;102893.97;5074952;28;20252;-60
2022/01/15 10:27:28;;;;;;;12.73;7.73;;;11.00;73.10;;;14.65;52.88;102894.38;5060418;28;20315;-61
2022/01/15 10:30:05;;;;;;;9.53;6.77;;;11.20;72.50;;;14.93;52.76;102894.34;5066900;28;20194;-60
2022/01/15 10:32:35;;;;;;;21.37;15.23;;;11.50;72.40;;;15.17;52.28;102894.56;5068692;28;20280;-61
2022/01/15 10:35:11;;;;;;;11.63;8.93;;;11.70;71.70;;;15.33;51.27;102894.75;5077782;28;20257;-58
2022/01/15 10:37:50;;;;;;;10.93;8.00;;;11.90;70.00;;;15.33;50.70;102884.13;5055427;28;20208;-62
2022/01/15 10:40:19;;;;;;;15.23;10.93;;;12.10;69.50;;;15.33;50.82;102886.78;5089573;28;20218;-62
2022/01/15 10:42:55;;;;;;;11.47;9.17;;;12.10;69.10;;;15.28;50.50;102887.25;5077714;28;20207;-62
2022/01/15 10:45:27;;;;;;;11.03;8.13;;;12.10;68.60;;;15.13;50.71;102888.75;5055169;28;20647;-61